Time;durP1;ratioP1;P1;durP2;ratioP2;P2;SDS_P1;SDS_P2;PMS_P1;PMS_P2;Temp;Humidity;BMP_temperature;BMP_pressure;BME280_temperature;BME280_humidity;BME280_pressure;Samples;Min_cycle;Max_cycle;Signal;HPM_P1;HPM_P2
2022/12/09 00:00:29;;;;;;;12.32;6.18;;;17.20;45.50;;;;;;5047893;28;20044;-57
2022/12/09 00:02:58;;;;;;;10.43;6.72;;;17.20;44.90;;;;;;5047766;28;20041;-58
2022/12/09 00:05:26;;;;;;;13.40;5.82;;;17.20;45.00;;;;;;5047720;28;20083;-58
2022/12/09 00:07:53;;;;;;;10.10;5.68;;;17.20;45.00;;;;;;5047742;28;20098;-59
2022/12/09 00:10:20;;;;;;;11.32;5.75;;;17.10;45.00;;;;;;5046672;28;20079;-56
2022/12/09 00:12:47;;;;;;;7.50;4.63;;;17.10;45.00;;;;;;5047707;28;20045;-58
2022/12/09 00:15:14;;;;;;;9.30;5.53;;;17.10;45.10;;;;;;5047762;28;20068;-54
2022/12/09 00:17:41;;;;;;;11.85;6.03;;;17.20;45.10;;;;;;5047546;28;20049;-57
2022/12/09 00:20:11;;;;;;;12.13;7.55;;;17.10;45.10;;;;;;5047097;28;20051;-57
2022/12/09 00:22:38;;;;;;;8.38;6.07;;;17.10;45.10;;;;;;5047540;28;20130;-55
2022/12/09 00:25:06;;;;;;;7.90;5.32;;;17.10;45.10;;;;;;5045351;28;20047;-55
2022/12/09 00:27:33;;;;;;;9.90;6.65;;;17.10;45.20;;;;;;5047564;28;20057;-52
2022/12/09 00:30:01;;;;;;;10.43;5.38;;;17.10;45.20;;;;;;5046053;28;20045;-55
2022/12/09 00:32:30;;;;;;;8.90;5.50;;;17.10;45.20;;;;;;5047157;28;20057;-56
2022/12/09 00:34:57;;;;;;;11.63;5.43;;;17.10;45.30;;;;;;5047180;28;20040;-56
2022/12/09 00:37:25;;;;;;;6.85;4.18;;;17.10;45.30;;;;;;5045775;28;20080;-55
2022/12/09 00:39:52;;;;;;;9.27;5.90;;;17.00;45.20;;;;;;5047524;28;20087;-56
2022/12/09 00:42:19;;;;;;;9.18;5.88;;;17.00;45.30;;;;;;5046049;28;20110;-55
2022/12/09 00:44:46;;;;;;;10.05;5.00;;;17.00;45.30;;;;;;5047801;28;20045;-56
2022/12/09 00:47:13;;;;;;;7.80;4.95;;;17.00;45.30;;;;;;5046872;28;20405;-55
2022/12/09 00:49:41;;;;;;;9.15;4.72;;;17.00;45.30;;;;;;5047039;28;20041;-56
2022/12/09 00:52:08;;;;;;;7.80;4.95;;;17.00;45.30;;;;;;5046800;28;20045;-56
2022/12/09 00:54:36;;;;;;;7.72;4.10;;;17.00;45.40;;;;;;5047362;28;20391;-58
2022/12/09 00:57:03;;;;;;;6.60;3.95;;;17.00;45.50;;;;;;5047213;28;20045;-59
2022/12/09 00:59:30;;;;;;;13.07;6.13;;;17.00;45.60;;;;;;5047183;28;20041;-57
2022/12/09 01:01:58;;;;;;;8.73;5.28;;;17.00;45.70;;;;;;5046945;28;20548;-57
2022/12/09 01:04:25;;;;;;;10.85;5.25;;;17.00;45.80;;;;;;5045431;28;20041;-58
2022/12/09 01:06:52;;;;;;;7.72;4.85;;;17.00;45.80;;;;;;5047174;28;20084;-58
2022/12/09 01:09:19;;;;;;;9.25;5.13;;;17.00;45.90;;;;;;5047112;28;20239;-57
2022/12/09 01:11:48;;;;;;;12.32;6.00;;;17.00;45.90;;;;;;5045650;28;20045;-58
2022/12/09 01:14:15;;;;;;;10.10;6.25;;;17.00;45.90;;;;;;5045810;28;20040;-58
2022/12/09 01:16:42;;;;;;;11.25;5.80;;;17.00;46.00;;;;;;5046760;28;20037;-56
2022/12/09 01:19:12;;;;;;;7.43;4.78;;;17.00;46.00;;;;;;5046354;28;20037;-58
2022/12/09 01:21:40;;;;;;;10.15;6.15;;;17.00;46.30;;;;;;5047109;28;20045;-57
2022/12/09 01:24:10;;;;;;;11.80;6.20;;;17.00;46.30;;;;;;5047076;28;20485;-58
2022/12/09 01:26:37;;;;;;;12.57;7.82;;;17.00;46.20;;;;;;5045532;28;20419;-56
2022/12/09 01:29:05;;;;;;;16.00;9.20;;;17.00;46.20;;;;;;5045754;28;20456;-56
2022/12/09 01:31:33;;;;;;;21.85;11.68;;;17.00;46.40;;;;;;5045233;28;20094;-56
2022/12/09 01:34:00;;;;;;;28.33;15.38;;;17.00;46.50;;;;;;5045049;28;20061;-56
2022/12/09 01:36:29;;;;;;;31.52;16.35;;;17.00;46.30;;;;;;5048868;28;20436;-57
2022/12/09 01:38:57;;;;;;;30.30;16.30;;;17.00;46.20;;;;;;5050759;28;20128;-58
2022/12/09 01:41:26;;;;;;;32.25;18.23;;;17.00;46.10;;;;;;5050759;28;20052;-57
2022/12/09 01:44:13;;;;;;;42.85;19.73;;;17.00;46.10;;;;;;5049559;28;20102;-58
2022/12/09 01:46:41;;;;;;;37.88;21.02;;;17.10;46.10;;;;;;5050591;28;20390;-57
2022/12/09 01:49:11;;;;;;;41.55;19.52;;;17.00;46.20;;;;;;5050445;28;20045;-58
2022/12/09 01:51:40;;;;;;;35.97;19.73;;;17.00;46.10;;;;;;5050046;28;20076;-58
2022/12/09 01:54:09;;;;;;;31.63;17.55;;;16.90;46.10;;;;;;5050334;28;20049;-56
2022/12/09 01:56:37;;;;;;;35.42;16.85;;;16.90;46.10;;;;;;5050019;28;20053;-57
2022/12/09 01:59:11;;;;;;;32.47;17.73;;;17.00;46.10;;;;;;5049052;28;20072;-58
2022/12/09 02:01:41;;;;;;;36.13;19.23;;;17.00;46.10;;;;;;5049826;28;20037;-58
2022/12/09 02:04:08;;;;;;;30.30;16.50;;;16.90;46.10;;;;;;5048768;28;20049;-58
2022/12/09 02:06:38;;;;;;;33.00;15.93;;;16.90;46.10;;;;;;5065564;28;20136;-58
2022/12/09 02:09:08;;;;;;;30.38;15.40;;;16.90;46.10;;;;;;5048830;28;20199;-58
2022/12/09 02:11:50;;;;;;;29.63;15.57;;;16.90;46.10;;;;;;5065593;28;20045;-58
2022/12/09 02:14:23;;;;;;;34.30;15.93;;;17.00;46.10;;;;;;5048783;28;20037;-58
2022/12/09 02:17:04;;;;;;;30.50;14.90;;;16.90;46.10;;;;;;5048247;28;20064;-57
2022/12/09 02:19:45;;;;;;;26.15;13.38;;;16.90;46.10;;;;;;5049454;28;20383;-57
2022/12/09 02:22:17;;;;;;;27.45;13.98;;;16.90;46.20;;;;;;5048912;28;20041;-59
2022/12/09 02:24:53;;;;;;;28.35;13.77;;;16.90;46.20;;;;;;5049942;28;20501;-58
2022/12/09 02:27:28;;;;;;;24.52;13.48;;;16.90;46.20;;;;;;5049732;28;20128;-59
2022/12/09 02:30:08;;;;;;;24.77;12.30;;;16.90;46.20;;;;;;5050011;28;20055;-60
2022/12/09 02:33:20;;;;;;;27.27;13.82;;;16.90;46.30;;;;;;5046932;28;20052;-60
2022/12/09 02:35:53;;;;;;;27.98;13.82;;;16.90;46.30;;;;;;4990967;28;20081;-59
2022/12/09 02:38:25;;;;;;;18.40;11.60;;;16.80;46.40;;;;;;4990797;28;20094;-59
2022/12/09 02:40:58;;;;;;;20.08;12.82;;;16.80;46.40;;;;;;5007256;28;20537;-58
2022/12/09 02:43:30;;;;;;;22.92;11.18;;;16.80;46.40;;;;;;4979457;28;20046;-59
2022/12/09 02:46:00;;;;;;;18.52;11.05;;;16.80;46.40;;;;;;4987078;28;20054;-59
2022/12/09 02:48:35;;;;;;;18.40;9.70;;;16.80;46.40;;;;;;4970673;28;20039;-60
2022/12/09 02:51:08;;;;;;;19.35;10.65;;;16.80;46.40;;;;;;4971204;28;20050;-59
2022/12/09 02:53:37;;;;;;;19.77;10.23;;;16.80;46.40;;;;;;4971232;28;20113;-57
2022/12/09 02:56:06;;;;;;;17.17;10.27;;;16.80;46.50;;;;;;4971120;28;20582;-57
2022/12/09 02:58:34;;;;;;;20.27;10.57;;;16.80;46.50;;;;;;4970989;28;20058;-56
2022/12/09 03:01:02;;;;;;;20.17;11.77;;;16.80;47.00;;;;;;4970331;28;20104;-56
2022/12/09 03:03:32;;;;;;;17.15;8.95;;;16.80;46.40;;;;;;5000723;28;20046;-55
2022/12/09 03:06:04;;;;;;;16.40;9.90;;;16.80;46.40;;;;;;5006793;28;20046;-57
2022/12/09 03:08:40;;;;;;;19.48;9.93;;;16.80;46.50;;;;;;5006624;28;20050;-57
2022/12/09 03:11:10;;;;;;;21.75;10.43;;;16.80;46.40;;;;;;5023353;28;20421;-57
2022/12/09 03:13:47;;;;;;;19.60;8.15;;;16.80;46.50;;;;;;5048875;28;20568;-56
2022/12/09 03:16:20;;;;;;;18.70;10.60;;;16.80;46.50;;;;;;5048595;28;20071;-56
2022/12/09 03:18:52;;;;;;;16.42;8.40;;;16.80;46.50;;;;;;5048690;28;20056;-58
2022/12/09 03:21:22;;;;;;;19.50;10.05;;;16.80;46.50;;;;;;5048816;28;20041;-56
2022/12/09 03:23:54;;;;;;;17.45;8.25;;;16.70;46.40;;;;;;5048718;28;20079;-56
2022/12/09 03:26:23;;;;;;;16.00;8.52;;;16.70;46.40;;;;;;5048620;28;20056;-57
2022/12/09 03:28:53;;;;;;;15.30;7.78;;;16.70;46.40;;;;;;5048351;28;20051;-57
2022/12/09 03:31:23;;;;;;;12.18;6.70;;;16.70;46.40;;;;;;5048675;28;20044;-56
2022/12/09 03:33:53;;;;;;;13.77;7.20;;;16.70;46.40;;;;;;5048345;28;20198;-58
2022/12/09 03:36:23;;;;;;;12.60;6.57;;;16.70;46.30;;;;;;5048733;28;20045;-58
2022/12/09 03:38:53;;;;;;;9.80;5.80;;;16.70;46.30;;;;;;5048543;28;20158;-58
2022/12/09 03:41:26;;;;;;;11.23;7.43;;;16.70;46.30;;;;;;5048301;28;20048;-57
2022/12/09 03:43:57;;;;;;;10.55;5.15;;;16.70;46.30;;;;;;5048326;28;20505;-57
2022/12/09 03:46:25;;;;;;;8.88;4.90;;;16.70;46.30;;;;;;5047264;28;20056;-56
2022/12/09 03:48:52;;;;;;;12.50;6.68;;;16.70;46.30;;;;;;5048460;28;20109;-57
2022/12/09 03:51:24;;;;;;;10.68;5.43;;;16.70;46.30;;;;;;5049493;28;20564;-56
2022/12/09 03:53:59;;;;;;;11.02;5.72;;;16.70;46.30;;;;;;5048265;28;20095;-57
2022/12/09 03:56:28;;;;;;;13.25;7.53;;;16.70;46.30;;;;;;5046667;28;20632;-58
2022/12/09 03:58:58;;;;;;;11.48;5.57;;;16.70;46.40;;;;;;5047631;28;20567;-56
2022/12/09 04:01:27;;;;;;;9.82;5.88;;;16.70;46.30;;;;;;5048110;28;20049;-57
2022/12/09 04:03:56;;;;;;;9.48;5.18;;;16.70;46.30;;;;;;5047695;28;20037;-57
2022/12/09 04:06:24;;;;;;;12.00;6.30;;;16.70;46.40;;;;;;5048148;28;20045;-56
2022/12/09 04:08:53;;;;;;;8.10;4.88;;;16.70;46.90;;;;;;5048093;28;20045;-57
2022/12/09 04:11:20;;;;;;;12.18;6.43;;;16.70;46.40;;;;;;5048804;28;20461;-57
2022/12/09 04:13:47;;;;;;;8.63;4.80;;;16.70;46.40;;;;;;5047713;28;20119;-57
2022/12/09 04:16:14;;;;;;;8.80;4.80;;;16.70;46.40;;;;;;5046652;28;20052;-57
2022/12/09 04:18:41;;;;;;;9.05;5.57;;;16.70;46.40;;;;;;5047571;28;20417;-57
2022/12/09 04:21:09;;;;;;;9.75;5.38;;;16.70;46.40;;;;;;5047614;28;20048;-56
2022/12/09 04:23:36;;;;;;;9.20;5.75;;;16.60;46.40;;;;;;5047699;28;20584;-56
2022/12/09 04:26:05;;;;;;;7.72;5.18;;;16.70;46.40;;;;;;5045719;28;20049;-56
2022/12/09 04:28:32;;;;;;;7.75;5.03;;;16.60;46.30;;;;;;5046391;28;20037;-56
2022/12/09 04:30:59;;;;;;;10.57;4.72;;;16.70;46.50;;;;;;5047663;28;20045;-55
2022/12/09 04:33:27;;;;;;;9.25;4.93;;;16.70;46.40;;;;;;5047029;28;20555;-56
2022/12/09 04:35:54;;;;;;;6.32;4.55;;;16.60;46.30;;;;;;5047583;28;20041;-55
2022/12/09 04:38:21;;;;;;;9.05;4.78;;;16.60;46.30;;;;;;5047268;28;20045;-56
2022/12/09 04:40:48;;;;;;;7.53;3.90;;;16.60;46.30;;;;;;5047455;28;20056;-55
2022/12/09 04:43:16;;;;;;;6.07;4.53;;;16.60;46.30;;;;;;5046857;28;20374;-56
2022/12/09 04:45:43;;;;;;;7.60;5.45;;;16.60;46.20;;;;;;5047048;28;20112;-55
2022/12/09 04:48:10;;;;;;;7.75;4.75;;;16.60;46.20;;;;;;5047046;28;20116;-56
2022/12/09 04:50:40;;;;;;;7.68;4.60;;;16.60;46.20;;;;;;5047242;28;20045;-53
2022/12/09 04:53:07;;;;;;;5.75;4.30;;;16.60;46.20;;;;;;5047436;28;20048;-56
2022/12/09 04:55:34;;;;;;;6.18;4.15;;;16.60;46.20;;;;;;5046991;28;20084;-57
2022/12/09 04:58:01;;;;;;;11.85;5.40;;;16.60;46.20;;;;;;5047040;28;20087;-56
2022/12/09 05:00:30;;;;;;;5.97;4.15;;;16.60;46.10;;;;;;5047128;28;20515;-57
2022/12/09 05:02:57;;;;;;;8.07;4.88;;;16.60;46.20;;;;;;5047047;28;20049;-58
2022/12/09 05:05:24;;;;;;;7.03;4.03;;;16.60;46.20;;;;;;5047024;28;20063;-57
2022/12/09 05:07:51;;;;;;;6.25;3.70;;;16.60;46.20;;;;;;5047147;28;20055;-57
2022/12/09 05:10:19;;;;;;;7.57;5.03;;;16.60;46.80;;;;;;5048242;28;20120;-57
2022/12/09 05:12:46;;;;;;;7.20;4.57;;;16.60;46.20;;;;;;5051079;28;20052;-57
2022/12/09 05:15:14;;;;;;;5.95;4.75;;;16.60;46.20;;;;;;5051252;28;20581;-58
2022/12/09 05:17:42;;;;;;;6.43;4.10;;;16.60;46.30;;;;;;5050693;28;20043;-57
2022/12/09 05:20:10;;;;;;;7.75;4.40;;;16.60;46.20;;;;;;5050857;28;20608;-58
2022/12/09 05:22:37;;;;;;;8.55;4.13;;;16.60;46.30;;;;;;5050757;28;20053;-58
2022/12/09 05:25:04;;;;;;;6.18;4.00;;;16.60;46.20;;;;;;5050702;28;20513;-58
2022/12/09 05:27:31;;;;;;;5.80;3.72;;;16.60;46.20;;;;;;5050992;28;20679;-57
2022/12/09 05:29:58;;;;;;;5.82;4.53;;;16.60;46.20;;;;;;5050755;28;20103;-58
2022/12/09 05:32:27;;;;;;;5.43;3.83;;;16.60;46.20;;;;;;5050451;28;20128;-57
2022/12/09 05:34:56;;;;;;;4.78;3.85;;;16.60;46.10;;;;;;5050454;28;20438;-58
2022/12/09 05:37:23;;;;;;;6.53;3.42;;;16.60;46.10;;;;;;5050588;28;20809;-55
2022/12/09 05:39:50;;;;;;;5.78;3.67;;;16.60;46.10;;;;;;5050250;28;20123;-56
2022/12/09 05:42:17;;;;;;;6.00;3.45;;;16.60;46.20;;;;;;5050591;28;20584;-57
2022/12/09 05:44:44;;;;;;;4.90;3.20;;;16.60;46.10;;;;;;5050375;28;20513;-55
2022/12/09 05:47:11;;;;;;;6.32;3.75;;;16.60;46.10;;;;;;5050111;28;20072;-57
2022/12/09 05:49:38;;;;;;;6.25;3.22;;;16.60;46.10;;;;;;5050396;28;20047;-55
2022/12/09 05:52:08;;;;;;;4.47;3.33;;;16.60;46.10;;;;;;5049272;28;20045;-55
2022/12/09 05:54:35;;;;;;;5.55;3.80;;;16.60;46.00;;;;;;5049925;28;20099;-57
2022/12/09 05:57:02;;;;;;;4.47;2.40;;;16.60;46.00;;;;;;5050389;28;20044;-56
2022/12/09 05:59:30;;;;;;;4.85;3.17;;;16.60;46.00;;;;;;5050103;28;20037;-57
2022/12/09 06:01:57;;;;;;;6.10;3.53;;;16.60;46.00;;;;;;5050246;28;20049;-57
2022/12/09 06:04:24;;;;;;;4.35;3.22;;;16.60;45.90;;;;;;5049770;28;20056;-57
2022/12/09 06:06:51;;;;;;;4.68;2.67;;;16.60;45.90;;;;;;5049782;28;20033;-56
2022/12/09 06:09:19;;;;;;;6.55;2.83;;;16.60;45.90;;;;;;5049545;28;20049;-57
2022/12/09 06:11:47;;;;;;;4.38;2.58;;;16.60;45.90;;;;;;5050240;28;20037;-57
2022/12/09 06:14:14;;;;;;;6.05;3.28;;;16.60;45.80;;;;;;5049658;28;20041;-57
2022/12/09 06:16:41;;;;;;;4.47;3.05;;;16.60;45.80;;;;;;5049961;28;20456;-56
2022/12/09 06:19:10;;;;;;;5.30;3.03;;;16.60;45.80;;;;;;5046199;28;20052;-57
2022/12/09 06:21:39;;;;;;;5.43;2.42;;;16.60;45.80;;;;;;5048264;28;20047;-59
2022/12/09 06:24:07;;;;;;;2.70;2.50;;;16.60;45.90;;;;;;5047695;28;20795;-56
2022/12/09 06:26:35;;;;;;;5.13;2.90;;;16.60;45.80;;;;;;5049459;28;20051;-55
2022/12/09 06:29:02;;;;;;;3.33;2.03;;;16.60;45.80;;;;;;5049537;28;20056;-58
2022/12/09 06:31:29;;;;;;;3.60;2.13;;;16.60;46.30;;;;;;5049557;28;20562;-58
2022/12/09 06:33:56;;;;;;;2.72;2.00;;;16.60;45.70;;;;;;5049261;28;20084;-59
2022/12/09 06:36:24;;;;;;;4.43;2.30;;;16.50;45.60;;;;;;5049207;28;20802;-57
2022/12/09 06:38:51;;;;;;;3.35;2.88;;;16.60;45.60;;;;;;5047423;28;20056;-58
2022/12/09 06:41:18;;;;;;;5.00;2.63;;;16.50;45.50;;;;;;5049279;28;20215;-58
2022/12/09 06:43:47;;;;;;;3.15;1.95;;;16.50;45.60;;;;;;5049278;28;20053;-60
2022/12/09 06:46:16;;;;;;;3.08;2.20;;;16.50;45.50;;;;;;5048963;28;20525;-60
2022/12/09 06:48:43;;;;;;;4.30;2.28;;;16.50;45.70;;;;;;5048830;28;20470;-60
2022/12/09 06:51:10;;;;;;;2.17;2.00;;;16.50;45.60;;;;;;5048885;28;20604;-60
2022/12/09 06:53:38;;;;;;;2.28;1.48;;;16.50;45.40;;;;;;5048710;28;20583;-59
2022/12/09 06:56:07;;;;;;;3.83;1.65;;;16.50;45.40;;;;;;5048814;28;20498;-59
2022/12/09 06:58:34;;;;;;;5.38;3.08;;;16.50;45.60;;;;;;5048839;28;20072;-59
2022/12/09 07:01:10;;;;;;;6.82;2.30;;;16.50;45.60;;;;;;5048481;28;20156;-60
2022/12/09 07:03:37;;;;;;;4.68;2.13;;;16.60;45.50;;;;;;5048303;28;20053;-60
2022/12/09 07:06:04;;;;;;;3.47;2.13;;;16.50;45.40;;;;;;5048249;28;20420;-57
2022/12/09 07:08:31;;;;;;;4.32;2.55;;;16.50;45.30;;;;;;5047415;28;20053;-58
2022/12/09 07:10:58;;;;;;;3.47;3.08;;;16.50;45.30;;;;;;5048332;28;20592;-58
2022/12/09 07:13:25;;;;;;;5.05;2.40;;;16.50;45.30;;;;;;5048379;28;20065;-58
2022/12/09 07:15:52;;;;;;;4.60;2.53;;;16.50;45.30;;;;;;5048395;28;20049;-58
2022/12/09 07:18:20;;;;;;;5.07;3.33;;;16.50;45.50;;;;;;5048278;28;20068;-58
2022/12/09 07:20:47;;;;;;;5.15;3.72;;;16.50;45.40;;;;;;5047819;28;20139;-59
2022/12/09 07:23:15;;;;;;;5.57;3.30;;;16.50;45.30;;;;;;5048424;28;20068;-58
2022/12/09 07:25:42;;;;;;;5.78;2.75;;;16.40;45.30;;;;;;5048422;28;20099;-58
2022/12/09 07:28:09;;;;;;;3.92;3.05;;;16.50;45.30;;;;;;5048307;28;20532;-58
2022/12/09 07:30:37;;;;;;;6.65;3.20;;;16.50;45.20;;;;;;5048418;28;20497;-58
2022/12/09 07:33:04;;;;;;;5.43;3.00;;;16.50;45.20;;;;;;5047267;28;20080;-59
2022/12/09 07:35:33;;;;;;;5.82;4.05;;;16.50;45.20;;;;;;5047912;28;20091;-59
2022/12/09 07:38:00;;;;;;;3.10;2.72;;;16.50;45.20;;;;;;5048122;28;20095;-58
2022/12/09 07:40:27;;;;;;;5.97;3.40;;;16.40;45.10;;;;;;5048267;28;20140;-58
2022/12/09 07:42:54;;;;;;;5.20;3.25;;;16.40;45.20;;;;;;5048056;28;20049;-59
2022/12/09 07:45:22;;;;;;;8.75;4.35;;;16.40;45.50;;;;;;5047881;28;20505;-58
2022/12/09 07:47:49;;;;;;;5.15;4.18;;;16.50;45.60;;;;;;5047419;28;20041;-58
2022/12/09 07:50:16;;;;;;;5.72;3.13;;;16.50;45.40;;;;;;5047444;28;20589;-57
2022/12/09 07:52:44;;;;;;;8.73;3.53;;;16.50;45.40;;;;;;5030420;28;20102;-57
2022/12/09 07:55:11;;;;;;;6.38;3.80;;;16.50;45.30;;;;;;5047923;28;20049;-58
2022/12/09 07:57:38;;;;;;;8.20;4.57;;;16.40;45.30;;;;;;5048014;28;20048;-59
2022/12/09 08:00:07;;;;;;;10.07;5.88;;;16.50;45.30;;;;;;5047206;28;20420;-57
2022/12/09 08:02:38;;;;;;;14.38;6.60;;;16.50;45.30;;;;;;5047373;28;20057;-56
2022/12/09 08:05:06;;;;;;;11.20;5.90;;;16.50;45.50;;;;;;5045892;28;20067;-59
2022/12/09 08:07:33;;;;;;;15.60;6.85;;;16.50;45.40;;;;;;5047597;28;20124;-58
2022/12/09 08:10:02;;;;;;;13.20;6.75;;;16.50;45.40;;;;;;5047621;28;20470;-59
2022/12/09 08:12:29;;;;;;;13.98;6.53;;;16.50;45.30;;;;;;5047528;28;20051;-58
2022/12/09 08:14:56;;;;;;;13.15;6.63;;;16.50;45.30;;;;;;5047156;28;20077;-59
2022/12/09 08:17:23;;;;;;;14.73;7.25;;;16.50;45.50;;;;;;5047180;28;20078;-57
2022/12/09 08:19:50;;;;;;;13.52;6.97;;;16.50;45.60;;;;;;5043512;28;20045;-59
2022/12/09 08:22:17;;;;;;;11.75;7.65;;;16.50;45.50;;;;;;5027363;28;20110;-55
2022/12/09 08:24:45;;;;;;;11.43;6.60;;;16.50;45.30;;;;;;5027641;28;20667;-56
2022/12/09 08:27:13;;;;;;;11.85;6.25;;;16.50;45.30;;;;;;5027418;28;20506;-58
2022/12/09 08:29:40;;;;;;;11.30;5.50;;;16.50;45.20;;;;;;5027309;28;20095;-60
2022/12/09 08:32:07;;;;;;;9.65;5.30;;;16.50;45.20;;;;;;5030200;28;20041;-57
2022/12/09 08:34:34;;;;;;;13.50;5.43;;;16.50;45.20;;;;;;5046572;28;20107;-57
2022/12/09 08:37:01;;;;;;;7.07;4.97;;;16.50;45.20;;;;;;5046971;28;20526;-56
2022/12/09 08:39:29;;;;;;;8.50;3.72;;;16.50;45.10;;;;;;5045790;28;20044;-56
2022/12/09 08:41:56;;;;;;;6.28;3.88;;;16.50;45.10;;;;;;5047256;28;20037;-54
2022/12/09 08:44:24;;;;;;;7.10;3.60;;;16.50;45.10;;;;;;5046289;28;20121;-58
2022/12/09 08:46:52;;;;;;;7.88;4.07;;;16.50;45.00;;;;;;5046864;28;20037;-57
2022/12/09 08:49:22;;;;;;;21.85;4.00;;;16.50;45.00;;;;;;5034804;28;20041;-60
2022/12/09 08:51:52;;;;;;;10.38;3.78;;;16.60;45.70;;;;;;5044554;28;20053;-68
2022/12/09 08:54:19;;;;;;;5.53;2.85;;;16.60;46.50;;;;;;5042045;28;20542;-67
2022/12/09 08:56:47;;;;;;;8.18;3.42;;;16.80;46.30;;;;;;5042967;28;20144;-60
2022/12/09 08:59:15;;;;;;;6.55;3.45;;;16.90;45.80;;;;;;5046752;28;20130;-60
2022/12/09 09:01:44;;;;;;;5.95;2.83;;;17.00;45.50;;;;;;5046388;28;20155;-60
2022/12/09 09:04:13;;;;;;;5.50;2.85;;;17.20;45.10;;;;;;5039994;28;20049;-61
2022/12/09 09:06:42;;;;;;;7.43;3.00;;;17.30;44.90;;;;;;5030798;28;20044;-60
2022/12/09 09:09:12;;;;;;;5.40;2.38;;;17.30;44.80;;;;;;5046427;28;20090;-60
2022/12/09 09:11:40;;;;;;;7.47;3.90;;;17.40;44.60;;;;;;5046408;28;20742;-63
2022/12/09 09:14:08;;;;;;;5.47;2.53;;;17.50;44.50;;;;;;5044997;28;20076;-59
2022/12/09 09:16:37;;;;;;;11.70;3.45;;;17.60;44.30;;;;;;5045820;28;20041;-57
2022/12/09 09:19:06;;;;;;;3.60;2.40;;;17.60;44.00;;;;;;5044694;28;20623;-59
2022/12/09 09:21:33;;;;;;;5.80;2.35;;;17.70;43.70;;;;;;5046175;28;20125;-60
2022/12/09 09:24:01;;;;;;;8.35;2.80;;;17.70;43.60;;;;;;5039391;28;20045;-56
2022/12/09 09:26:28;;;;;;;3.30;2.20;;;17.80;43.40;;;;;;5046236;28;20225;-60
2022/12/09 09:28:55;;;;;;;4.57;2.95;;;17.80;43.30;;;;;;5046218;28;20514;-57
2022/12/09 09:31:23;;;;;;;5.35;2.95;;;17.90;43.20;;;;;;5046112;28;20033;-60
2022/12/09 09:33:51;;;;;;;6.45;3.28;;;17.90;43.00;;;;;;5045716;28;20043;-53
2022/12/09 09:36:22;;;;;;;5.72;3.08;;;17.90;42.90;;;;;;5046209;28;20417;-59
2022/12/09 09:38:50;;;;;;;6.20;3.50;;;18.00;42.80;;;;;;5045967;28;20087;-59
2022/12/09 09:41:24;;;;;;;3.38;2.63;;;18.10;42.80;;;;;;5046309;28;20136;-60
2022/12/09 09:43:51;;;;;;;4.75;2.72;;;18.10;42.50;;;;;;5046436;28;20421;-60
2022/12/09 09:46:28;;;;;;;4.03;3.05;;;18.10;42.50;;;;;;5045831;28;20119;-61
2022/12/09 09:48:57;;;;;;;3.45;2.30;;;18.20;42.40;;;;;;5029402;28;20095;-59
2022/12/09 09:51:26;;;;;;;2.72;1.80;;;18.30;42.30;;;;;;5046294;28;20040;-57
2022/12/09 09:53:53;;;;;;;7.93;2.47;;;18.40;42.20;;;;;;5046267;28;20096;-56
2022/12/09 09:56:27;;;;;;;4.65;2.45;;;18.40;42.10;;;;;;5045899;28;20040;-57
2022/12/09 09:59:05;;;;;;;3.70;2.13;;;18.50;41.80;;;;;;5033924;28;20045;-55
2022/12/09 10:01:35;;;;;;;3.45;2.35;;;18.60;41.80;;;;;;5049421;28;20501;-57
2022/12/09 10:04:10;;;;;;;5.57;2.75;;;18.60;41.70;;;;;;5049435;28;20402;-59
2022/12/09 10:06:46;;;;;;;6.22;3.40;;;18.70;41.40;;;;;;5049535;28;20045;-63
2022/12/09 10:09:20;;;;;;;4.45;2.38;;;18.80;41.30;;;;;;5049925;28;20421;-61
2022/12/09 10:11:57;;;;;;;8.38;3.38;;;18.90;41.30;;;;;;5049557;28;20048;-64
2022/12/09 10:14:43;;;;;;;4.18;2.97;;;18.90;41.00;;;;;;5049135;28;20052;-62
2022/12/09 10:17:19;;;;;;;8.88;4.18;;;19.00;40.80;;;;;;5046577;28;20069;-61
2022/12/09 10:19:52;;;;;;;22.08;2.95;;;19.10;40.60;;;;;;5048952;28;20041;-64
2022/12/09 10:22:23;;;;;;;7.05;2.67;;;19.10;41.00;;;;;;5049441;28;20569;-63
2022/12/09 10:24:53;;;;;;;5.07;2.45;;;19.20;40.30;;;;;;5048706;28;20033;-62
2022/12/09 10:27:29;;;;;;;5.63;2.95;;;19.20;40.30;;;;;;5049555;28;20041;-62
2022/12/09 10:29:59;;;;;;;3.67;2.50;;;19.30;40.00;;;;;;5048771;28;20041;-62
2022/12/09 10:32:29;;;;;;;8.00;2.25;;;19.30;40.00;;;;;;5048880;28;20077;-62
2022/12/09 10:34:57;;;;;;;5.00;2.85;;;19.30;39.80;;;;;;5048813;28;20048;-62
2022/12/09 10:37:29;;;;;;;5.13;2.58;;;19.30;39.70;;;;;;5049235;28;20134;-62
2022/12/09 10:40:13;;;;;;;11.68;2.22;;;19.40;39.60;;;;;;5049126;28;20512;-70
2022/12/09 10:45:29;;;;;;;7.45;3.70;;;19.40;39.70;;;;;;5048664;28;20048;-62
2022/12/09 10:47:56;;;;;;;5.53;3.53;;;19.40;39.70;;;;;;5048958;28;20207;-55
2022/12/09 10:50:32;;;;;;;7.78;3.53;;;19.40;39.60;;;;;;5040408;28;20591;-54
2022/12/09 10:53:05;;;;;;;5.22;3.20;;;19.50;39.60;;;;;;5033464;28;20134;-58
2022/12/09 10:55:35;;;;;;;5.63;3.55;;;19.50;39.60;;;;;;5048987;28;20591;-60
2022/12/09 10:58:16;;;;;;;8.95;3.97;;;19.50;39.70;;;;;;5048484;28;20592;-59
2022/12/09 11:00:43;;;;;;;4.05;3.67;;;19.50;39.60;;;;;;5048513;28;20536;-60
2022/12/09 11:03:37;;;;;;;7.80;4.07;;;19.50;39.70;;;;;;5048621;28;20040;-61
2022/12/09 11:06:17;;;;;;;5.57;2.67;;;19.50;39.60;;;;;;5043350;28;20590;-61
2022/12/09 11:08:53;;;;;;;4.07;2.30;;;19.50;39.60;;;;;;5047700;28;20041;-62
2022/12/09 11:11:20;;;;;;;6.77;2.90;;;19.50;39.70;;;;;;5048582;28;20095;-62
2022/12/09 11:13:47;;;;;;;5.35;3.67;;;19.50;39.70;;;;;;5048123;28;20640;-59
2022/12/09 11:16:15;;;;;;;3.53;3.03;;;19.50;39.60;;;;;;5048947;28;20472;-65
2022/12/09 11:18:45;;;;;;;5.53;3.08;;;19.60;39.50;;;;;;5048302;28;20417;-59
2022/12/09 11:21:28;;;;;;;7.03;3.45;;;19.60;39.60;;;;;;5048476;28;20135;-61
2022/12/09 11:23:57;;;;;;;4.72;2.83;;;19.70;39.50;;;;;;5047703;28;20049;-62
2022/12/09 11:26:26;;;;;;;5.65;3.00;;;19.70;39.60;;;;;;5048447;28;20110;-62
2022/12/09 11:29:02;;;;;;;9.77;2.97;;;19.80;39.50;;;;;;5047857;28;20090;-63
2022/12/09 11:31:33;;;;;;;5.30;3.33;;;19.90;39.20;;;;;;5048976;28;20051;-63
2022/12/09 11:34:03;;;;;;;7.15;3.40;;;20.00;39.40;;;;;;5048323;28;20053;-61
2022/12/09 11:36:34;;;;;;;3.72;2.45;;;20.10;39.40;;;;;;5047805;28;20045;-61
2022/12/09 11:39:17;;;;;;;6.70;3.20;;;20.20;39.50;;;;;;5048062;28;20048;-60
2022/12/09 11:44:36;;;;;;;5.15;2.70;;;20.40;39.40;;;;;;5047930;28;20053;-60
2022/12/09 11:47:06;;;;;;;6.15;2.28;;;20.50;39.70;;;;;;5047704;28;20055;-60
2022/12/09 11:49:36;;;;;;;9.20;4.07;;;20.60;39.90;;;;;;5046931;28;20053;-61
2022/12/09 11:52:06;;;;;;;4.97;2.40;;;20.60;40.00;;;;;;5040906;28;20041;-59
2022/12/09 11:54:42;;;;;;;4.85;3.22;;;20.70;40.00;;;;;;5047671;28;20071;-57
2022/12/09 11:57:21;;;;;;;9.13;4.30;;;20.80;40.80;;;;;;5047718;28;20190;-62
2022/12/09 11:59:53;;;;;;;5.97;4.30;;;20.90;39.90;;;;;;5048041;28;20048;-64
2022/12/09 12:02:29;;;;;;;31.77;4.10;;;21.00;39.50;;;;;;5047374;28;20080;-60
2022/12/09 12:05:01;;;;;;;4.57;2.60;;;21.00;39.50;;;;;;5047450;28;20142;-59
2022/12/09 12:07:37;;;;;;;7.82;3.58;;;21.10;39.50;;;;;;5046948;28;20091;-59
2022/12/09 12:10:15;;;;;;;4.18;3.28;;;21.20;39.40;;;;;;5047538;28;20772;-60
2022/12/09 12:12:46;;;;;;;3.72;3.42;;;21.30;39.30;;;;;;5043246;28;20069;-60
2022/12/09 12:15:17;;;;;;;9.43;4.13;;;21.30;39.10;;;;;;5047539;28;20041;-57
2022/12/09 12:17:50;;;;;;;4.53;4.07;;;21.40;38.90;;;;;;5047323;28;20057;-59
2022/12/09 12:20:17;;;;;;;13.27;4.47;;;21.40;38.70;;;;;;5040588;28;20045;-58
2022/12/09 12:23:26;;;;;;;6.97;4.45;;;21.50;38.40;;;;;;5046729;28;20040;-61
2022/12/09 12:26:03;;;;;;;6.78;3.17;;;21.60;38.20;;;;;;5035274;28;20060;-62
2022/12/09 12:28:47;;;;;;;7.25;5.43;;;21.60;38.00;;;;;;5046883;28;20152;-59
2022/12/09 12:31:29;;;;;;;6.13;5.18;;;21.70;37.00;;;;;;5047355;28;20040;-64
2022/12/09 12:34:04;;;;;;;9.20;4.53;;;21.70;36.80;;;;;;5046888;28;20557;-60
2022/12/09 12:36:39;;;;;;;6.00;4.43;;;21.70;37.00;;;;;;5047072;28;20092;-57
2022/12/09 12:39:13;;;;;;;13.63;5.15;;;21.70;37.20;;;;;;5046930;28;20485;-59
2022/12/09 12:41:50;;;;;;;15.30;5.38;;;21.80;37.10;;;;;;5046390;28;20138;-48
2022/12/09 12:47:25;;;;;;;12.88;3.88;;;21.90;37.30;;;;;;5047094;28;20060;-48
2022/12/09 12:50:18;;;;;;;9.63;4.75;;;22.00;37.30;;;;;;5037358;28;20045;-49
2022/12/09 12:52:53;;;;;;;7.10;4.22;;;22.10;37.20;;;;;;5046150;28;20410;-55
2022/12/09 12:55:35;;;;;;;7.07;4.72;;;22.10;36.90;;;;;;5047273;28;20545;-49
2022/12/09 12:58:10;;;;;;;6.32;4.90;;;22.20;36.40;;;;;;5047224;28;20068;-50
2022/12/09 13:00:48;;;;;;;9.85;5.50;;;22.20;35.70;;;;;;5047244;28;20041;-48
2022/12/09 13:03:24;;;;;;;8.73;5.78;;;22.20;35.20;;;;;;5047351;28;20048;-56
2022/12/09 13:05:54;;;;;;;8.63;5.35;;;22.20;35.10;;;;;;5045558;28;20160;-55